sensor_id;sensor_type;location;lat;lon;timestamp;temperature;humidity
36384;DHT22;22418;51.210;6.976;2023-09-12T00:02:02;22.30;99.90
36384;DHT22;22418;51.210;6.976;2023-09-12T00:04:32;22.30;99.90
36384;DHT22;22418;51.210;6.976;2023-09-12T00:07:03;22.20;99.90
36384;DHT22;22418;51.210;6.976;2023-09-12T00:09:33;22.10;99.90
36384;DHT22;22418;51.210;6.976;2023-09-12T00:12:04;22.00;99.90
36384;DHT22;22418;51.210;6.976;2023-09-12T00:14:35;22.00;99.90
36384;DHT22;22418;51.210;6.976;2023-09-12T00:17:06;22.00;99.90
36384;DHT22;22418;51.210;6.976;2023-09-12T00:19:36;22.00;99.90
36384;DHT22;22418;51.210;6.976;2023-09-12T00:22:07;22.10;99.90
36384;DHT22;22418;51.210;6.976;2023-09-12T00:24:37;22.00;99.90
36384;DHT22;22418;51.210;6.976;2023-09-12T00:27:08;21.90;99.90
36384;DHT22;22418;51.210;6.976;2023-09-12T00:29:39;21.90;99.90
36384;DHT22;22418;51.210;6.976;2023-09-12T00:32:09;21.90;99.90
36384;DHT22;22418;51.210;6.976;2023-09-12T00:34:40;21.90;99.90
36384;DHT22;22418;51.210;6.976;2023-09-12T00:37:10;21.90;99.90
36384;DHT22;22418;51.210;6.976;2023-09-12T00:39:42;21.90;99.90
36384;DHT22;22418;51.210;6.976;2023-09-12T00:42:12;21.80;99.90
36384;DHT22;22418;51.210;6.976;2023-09-12T00:44:43;21.70;99.90
36384;DHT22;22418;51.210;6.976;2023-09-12T00:47:14;21.60;99.90
36384;DHT22;22418;51.210;6.976;2023-09-12T00:49:45;21.40;99.90
36384;DHT22;22418;51.210;6.976;2023-09-12T00:52:16;21.40;99.90
36384;DHT22;22418;51.210;6.976;2023-09-12T00:54:47;21.30;99.90
36384;DHT22;22418;51.210;6.976;2023-09-12T00:57:18;21.20;99.90
36384;DHT22;22418;51.210;6.976;2023-09-12T00:59:49;21.10;99.90
36384;DHT22;22418;51.210;6.976;2023-09-12T01:02:21;21.00;99.90
36384;DHT22;22418;51.210;6.976;2023-09-12T01:04:52;21.00;99.90
36384;DHT22;22418;51.210;6.976;2023-09-12T01:07:23;21.10;99.90
36384;DHT22;22418;51.210;6.976;2023-09-12T01:09:54;21.10;99.90
36384;DHT22;22418;51.210;6.976;2023-09-12T01:12:25;21.10;99.90
36384;DHT22;22418;51.210;6.976;2023-09-12T01:14:56;21.20;99.90
36384;DHT22;22418;51.210;6.976;2023-09-12T01:17:27;21.20;99.90
36384;DHT22;22418;51.210;6.976;2023-09-12T01:19:58;21.20;99.90
36384;DHT22;22418;51.210;6.976;2023-09-12T01:25:55;21.20;99.90
36384;DHT22;22418;51.210;6.976;2023-09-12T01:28:30;21.30;99.90
36384;DHT22;22418;51.210;6.976;2023-09-12T01:31:05;21.40;99.90
36384;DHT22;22418;51.210;6.976;2023-09-12T01:33:36;21.40;99.90
36384;DHT22;22418;51.210;6.976;2023-09-12T01:36:08;21.30;99.90
36384;DHT22;22418;51.210;6.976;2023-09-12T01:38:39;21.20;99.90
36384;DHT22;22418;51.210;6.976;2023-09-12T01:41:10;21.20;99.90
36384;DHT22;22418;51.210;6.976;2023-09-12T01:43:41;21.30;99.90
36384;DHT22;22418;51.210;6.976;2023-09-12T01:46:14;21.30;99.90
36384;DHT22;22418;51.210;6.976;2023-09-12T01:48:46;21.40;99.90
36384;DHT22;22418;51.210;6.976;2023-09-12T01:51:22;21.40;99.90
36384;DHT22;22418;51.210;6.976;2023-09-12T01:53:53;21.50;99.90
36384;DHT22;22418;51.210;6.976;2023-09-12T01:56:25;21.40;99.90
36384;DHT22;22418;51.210;6.976;2023-09-12T01:58:56;21.40;99.90
36384;DHT22;22418;51.210;6.976;2023-09-12T02:01:27;21.40;99.90
36384;DHT22;22418;51.210;6.976;2023-09-12T02:03:58;21.40;99.90
36384;DHT22;22418;51.210;6.976;2023-09-12T02:06:28;21.20;99.90
36384;DHT22;22418;51.210;6.976;2023-09-12T02:08:59;21.20;99.90
36384;DHT22;22418;51.210;6.976;2023-09-12T02:11:29;21.30;99.90
36384;DHT22;22418;51.210;6.976;2023-09-12T02:14:00;21.20;99.90
36384;DHT22;22418;51.210;6.976;2023-09-12T02:16:31;21.20;99.90
36384;DHT22;22418;51.210;6.976;2023-09-12T02:19:02;21.20;99.90
36384;DHT22;22418;51.210;6.976;2023-09-12T02:21:32;21.20;99.90
36384;DHT22;22418;51.210;6.976;2023-09-12T02:24:03;21.30;99.90
36384;DHT22;22418;51.210;6.976;2023-09-12T02:26:34;21.30;99.90
36384;DHT22;22418;51.210;6.976;2023-09-12T02:29:06;21.30;99.90
36384;DHT22;22418;51.210;6.976;2023-09-12T02:31:37;21.30;99.90
36384;DHT22;22418;51.210;6.976;2023-09-12T02:34:08;21.30;99.90
36384;DHT22;22418;51.210;6.976;2023-09-12T02:36:38;21.30;99.90
36384;DHT22;22418;51.210;6.976;2023-09-12T02:39:09;21.40;99.90
36384;DHT22;22418;51.210;6.976;2023-09-12T02:41:39;21.40;99.90
36384;DHT22;22418;51.210;6.976;2023-09-12T02:44:10;21.50;99.90
36384;DHT22;22418;51.210;6.976;2023-09-12T02:46:40;21.40;99.90
36384;DHT22;22418;51.210;6.976;2023-09-12T02:49:11;21.30;99.90
36384;DHT22;22418;51.210;6.976;2023-09-12T02:51:41;21.10;99.90
36384;DHT22;22418;51.210;6.976;2023-09-12T02:54:12;21.00;99.90
36384;DHT22;22418;51.210;6.976;2023-09-12T02:56:43;21.00;99.90
36384;DHT22;22418;51.210;6.976;2023-09-12T02:59:13;21.10;99.90
36384;DHT22;22418;51.210;6.976;2023-09-12T03:01:44;21.10;99.90
36384;DHT22;22418;51.210;6.976;2023-09-12T03:04:14;21.00;99.90
36384;DHT22;22418;51.210;6.976;2023-09-12T03:06:45;20.90;99.90
36384;DHT22;22418;51.210;6.976;2023-09-12T03:09:15;20.80;99.90
36384;DHT22;22418;51.210;6.976;2023-09-12T03:11:48;20.80;99.90
36384;DHT22;22418;51.210;6.976;2023-09-12T03:14:19;20.80;99.90
36384;DHT22;22418;51.210;6.976;2023-09-12T03:16:50;20.80;99.90
36384;DHT22;22418;51.210;6.976;2023-09-12T03:19:20;20.70;99.90
36384;DHT22;22418;51.210;6.976;2023-09-12T03:21:51;20.60;99.90
36384;DHT22;22418;51.210;6.976;2023-09-12T03:24:22;20.60;99.90
36384;DHT22;22418;51.210;6.976;2023-09-12T03:26:55;20.60;99.90
36384;DHT22;22418;51.210;6.976;2023-09-12T03:29:25;20.60;99.90
36384;DHT22;22418;51.210;6.976;2023-09-12T03:31:58;20.60;99.90
36384;DHT22;22418;51.210;6.976;2023-09-12T03:34:29;20.60;99.90
36384;DHT22;22418;51.210;6.976;2023-09-12T03:36:59;20.70;99.90
36384;DHT22;22418;51.210;6.976;2023-09-12T03:39:30;20.70;99.90
36384;DHT22;22418;51.210;6.976;2023-09-12T03:42:00;20.70;99.90
36384;DHT22;22418;51.210;6.976;2023-09-12T03:44:31;20.70;99.90
36384;DHT22;22418;51.210;6.976;2023-09-12T03:47:02;20.70;99.90
36384;DHT22;22418;51.210;6.976;2023-09-12T03:49:32;20.70;99.90
36384;DHT22;22418;51.210;6.976;2023-09-12T03:52:03;20.80;99.90
36384;DHT22;22418;51.210;6.976;2023-09-12T03:54:34;20.70;99.90
36384;DHT22;22418;51.210;6.976;2023-09-12T03:57:05;20.80;99.90
36384;DHT22;22418;51.210;6.976;2023-09-12T03:59:35;20.80;99.90
36384;DHT22;22418;51.210;6.976;2023-09-12T04:02:06;20.70;99.90
36384;DHT22;22418;51.210;6.976;2023-09-12T04:04:36;20.70;99.90
36384;DHT22;22418;51.210;6.976;2023-09-12T04:07:07;20.70;99.90
36384;DHT22;22418;51.210;6.976;2023-09-12T04:09:38;20.70;99.90
36384;DHT22;22418;51.210;6.976;2023-09-12T04:12:08;20.70;99.90
36384;DHT22;22418;51.210;6.976;2023-09-12T04:14:39;20.80;99.90
36384;DHT22;22418;51.210;6.976;2023-09-12T04:17:09;20.80;99.90
36384;DHT22;22418;51.210;6.976;2023-09-12T04:19:40;20.80;99.90
36384;DHT22;22418;51.210;6.976;2023-09-12T04:22:11;20.80;99.90
36384;DHT22;22418;51.210;6.976;2023-09-12T04:24:41;20.80;99.90
36384;DHT22;22418;51.210;6.976;2023-09-12T04:27:12;20.80;99.90
36384;DHT22;22418;51.210;6.976;2023-09-12T04:29:43;20.80;99.90
36384;DHT22;22418;51.210;6.976;2023-09-12T04:32:13;20.80;99.90
36384;DHT22;22418;51.210;6.976;2023-09-12T04:34:44;20.90;99.90
36384;DHT22;22418;51.210;6.976;2023-09-12T04:37:14;20.80;99.90
36384;DHT22;22418;51.210;6.976;2023-09-12T04:39:45;20.80;99.90
36384;DHT22;22418;51.210;6.976;2023-09-12T04:42:16;20.80;99.90
36384;DHT22;22418;51.210;6.976;2023-09-12T04:44:46;20.70;99.90
36384;DHT22;22418;51.210;6.976;2023-09-12T04:47:17;20.80;99.90
36384;DHT22;22418;51.210;6.976;2023-09-12T04:49:48;20.90;99.90
36384;DHT22;22418;51.210;6.976;2023-09-12T04:52:18;20.90;99.90
36384;DHT22;22418;51.210;6.976;2023-09-12T04:54:49;20.90;99.90
36384;DHT22;22418;51.210;6.976;2023-09-12T04:57:19;20.90;99.90
36384;DHT22;22418;51.210;6.976;2023-09-12T04:59:51;20.90;99.90
36384;DHT22;22418;51.210;6.976;2023-09-12T05:02:22;21.00;99.90
36384;DHT22;22418;51.210;6.976;2023-09-12T05:04:53;21.00;99.90
36384;DHT22;22418;51.210;6.976;2023-09-12T05:07:24;20.80;99.90
36384;DHT22;22418;51.210;6.976;2023-09-12T05:09:54;20.60;99.90
36384;DHT22;22418;51.210;6.976;2023-09-12T05:12:25;20.50;99.90
36384;DHT22;22418;51.210;6.976;2023-09-12T05:14:55;20.50;99.90
36384;DHT22;22418;51.210;6.976;2023-09-12T05:17:27;20.60;99.90
36384;DHT22;22418;51.210;6.976;2023-09-12T05:19:58;20.60;99.90
36384;DHT22;22418;51.210;6.976;2023-09-12T05:22:28;20.60;99.90
36384;DHT22;22418;51.210;6.976;2023-09-12T05:24:59;20.60;99.90
36384;DHT22;22418;51.210;6.976;2023-09-12T05:27:29;20.70;99.90
36384;DHT22;22418;51.210;6.976;2023-09-12T05:30:00;20.70;99.90
36384;DHT22;22418;51.210;6.976;2023-09-12T05:32:31;20.70;99.90
36384;DHT22;22418;51.210;6.976;2023-09-12T05:35:01;20.60;99.90
36384;DHT22;22418;51.210;6.976;2023-09-12T05:37:32;20.70;99.90
36384;DHT22;22418;51.210;6.976;2023-09-12T05:40:03;20.70;99.90
36384;DHT22;22418;51.210;6.976;2023-09-12T05:42:34;20.80;99.90
36384;DHT22;22418;51.210;6.976;2023-09-12T05:45:06;20.90;99.90
36384;DHT22;22418;51.210;6.976;2023-09-12T05:47:37;20.90;99.90
36384;DHT22;22418;51.210;6.976;2023-09-12T05:50:08;20.90;99.90
36384;DHT22;22418;51.210;6.976;2023-09-12T05:52:38;20.90;99.90
36384;DHT22;22418;51.210;6.976;2023-09-12T05:55:09;21.00;99.90
36384;DHT22;22418;51.210;6.976;2023-09-12T05:57:39;21.10;99.90
36384;DHT22;22418;51.210;6.976;2023-09-12T06:00:10;21.20;99.90
36384;DHT22;22418;51.210;6.976;2023-09-12T06:02:42;21.20;99.90
36384;DHT22;22418;51.210;6.976;2023-09-12T06:05:12;21.30;99.90
36384;DHT22;22418;51.210;6.976;2023-09-12T06:07:43;21.40;99.90
36384;DHT22;22418;51.210;6.976;2023-09-12T06:10:16;21.50;99.90
36384;DHT22;22418;51.210;6.976;2023-09-12T06:12:46;21.50;99.90
36384;DHT22;22418;51.210;6.976;2023-09-12T06:15:17;21.50;99.90
36384;DHT22;22418;51.210;6.976;2023-09-12T06:17:48;21.30;99.90
36384;DHT22;22418;51.210;6.976;2023-09-12T06:20:18;21.10;99.90
36384;DHT22;22418;51.210;6.976;2023-09-12T06:22:49;21.20;99.90
36384;DHT22;22418;51.210;6.976;2023-09-12T06:25:19;21.30;99.90
36384;DHT22;22418;51.210;6.976;2023-09-12T06:27:50;21.40;99.90
36384;DHT22;22418;51.210;6.976;2023-09-12T06:30:20;21.40;99.90
36384;DHT22;22418;51.210;6.976;2023-09-12T06:32:51;21.20;99.90
36384;DHT22;22418;51.210;6.976;2023-09-12T06:35:21;21.10;99.90
36384;DHT22;22418;51.210;6.976;2023-09-12T06:37:53;21.10;99.90
36384;DHT22;22418;51.210;6.976;2023-09-12T06:40:24;21.20;99.90
36384;DHT22;22418;51.210;6.976;2023-09-12T06:42:54;21.40;99.90
36384;DHT22;22418;51.210;6.976;2023-09-12T06:45:25;21.50;99.90
36384;DHT22;22418;51.210;6.976;2023-09-12T06:47:55;21.60;99.90
36384;DHT22;22418;51.210;6.976;2023-09-12T06:50:26;21.60;99.90
36384;DHT22;22418;51.210;6.976;2023-09-12T06:52:56;21.60;99.90
36384;DHT22;22418;51.210;6.976;2023-09-12T06:55:28;21.40;99.90
36384;DHT22;22418;51.210;6.976;2023-09-12T06:57:58;21.20;99.90
36384;DHT22;22418;51.210;6.976;2023-09-12T07:00:29;21.40;99.90
36384;DHT22;22418;51.210;6.976;2023-09-12T07:03:00;21.40;99.90
36384;DHT22;22418;51.210;6.976;2023-09-12T07:05:30;21.50;99.90
36384;DHT22;22418;51.210;6.976;2023-09-12T07:08:01;21.60;99.90
36384;DHT22;22418;51.210;6.976;2023-09-12T07:10:31;21.90;99.90
36384;DHT22;22418;51.210;6.976;2023-09-12T07:13:02;22.00;99.90
36384;DHT22;22418;51.210;6.976;2023-09-12T07:15:35;22.10;99.90
36384;DHT22;22418;51.210;6.976;2023-09-12T07:18:06;22.20;99.90
36384;DHT22;22418;51.210;6.976;2023-09-12T07:20:37;22.30;99.90
36384;DHT22;22418;51.210;6.976;2023-09-12T07:23:07;22.30;99.90
36384;DHT22;22418;51.210;6.976;2023-09-12T07:25:39;22.30;99.90
36384;DHT22;22418;51.210;6.976;2023-09-12T07:28:10;22.50;99.90
36384;DHT22;22418;51.210;6.976;2023-09-12T07:30:41;22.40;99.90
36384;DHT22;22418;51.210;6.976;2023-09-12T07:33:12;22.30;99.90
36384;DHT22;22418;51.210;6.976;2023-09-12T07:35:42;22.30;99.90
36384;DHT22;22418;51.210;6.976;2023-09-12T07:38:13;22.20;99.90
36384;DHT22;22418;51.210;6.976;2023-09-12T07:40:45;22.50;99.90
36384;DHT22;22418;51.210;6.976;2023-09-12T07:43:16;22.60;99.90
36384;DHT22;22418;51.210;6.976;2023-09-12T07:45:46;22.60;99.90
36384;DHT22;22418;51.210;6.976;2023-09-12T07:48:17;22.80;99.90
36384;DHT22;22418;51.210;6.976;2023-09-12T07:50:48;22.70;99.90
36384;DHT22;22418;51.210;6.976;2023-09-12T07:53:18;22.50;99.90
36384;DHT22;22418;51.210;6.976;2023-09-12T07:55:49;22.50;99.90
36384;DHT22;22418;51.210;6.976;2023-09-12T07:58:20;22.80;99.90
36384;DHT22;22418;51.210;6.976;2023-09-12T08:00:51;22.80;99.90
36384;DHT22;22418;51.210;6.976;2023-09-12T08:03:22;23.00;99.90
36384;DHT22;22418;51.210;6.976;2023-09-12T08:05:56;23.00;99.90
36384;DHT22;22418;51.210;6.976;2023-09-12T08:08:27;23.00;99.90
36384;DHT22;22418;51.210;6.976;2023-09-12T08:10:58;23.40;99.90
36384;DHT22;22418;51.210;6.976;2023-09-12T08:13:29;23.60;99.90
36384;DHT22;22418;51.210;6.976;2023-09-12T08:16:00;23.70;99.90
36384;DHT22;22418;51.210;6.976;2023-09-12T08:18:31;23.50;99.90
36384;DHT22;22418;51.210;6.976;2023-09-12T08:21:01;23.30;99.90
36384;DHT22;22418;51.210;6.976;2023-09-12T08:23:32;23.20;99.90
36384;DHT22;22418;51.210;6.976;2023-09-12T08:26:03;23.20;99.90
36384;DHT22;22418;51.210;6.976;2023-09-12T08:28:33;23.20;99.90
36384;DHT22;22418;51.210;6.976;2023-09-12T08:31:04;23.50;99.90
36384;DHT22;22418;51.210;6.976;2023-09-12T08:33:34;23.60;99.90
36384;DHT22;22418;51.210;6.976;2023-09-12T08:36:05;23.70;99.90
36384;DHT22;22418;51.210;6.976;2023-09-12T08:38:35;23.80;99.90
36384;DHT22;22418;51.210;6.976;2023-09-12T08:41:06;23.70;99.90
36384;DHT22;22418;51.210;6.976;2023-09-12T08:43:37;23.80;99.90
36384;DHT22;22418;51.210;6.976;2023-09-12T08:46:08;24.30;99.90
36384;DHT22;22418;51.210;6.976;2023-09-12T08:48:40;24.60;99.90
36384;DHT22;22418;51.210;6.976;2023-09-12T08:51:11;24.60;99.90
36384;DHT22;22418;51.210;6.976;2023-09-12T08:53:42;24.60;99.90
36384;DHT22;22418;51.210;6.976;2023-09-12T08:56:13;24.20;99.90
36384;DHT22;22418;51.210;6.976;2023-09-12T08:58:45;24.10;99.90
36384;DHT22;22418;51.210;6.976;2023-09-12T09:01:16;24.10;99.90
36384;DHT22;22418;51.210;6.976;2023-09-12T09:03:48;24.20;99.90
36384;DHT22;22418;51.210;6.976;2023-09-12T09:06:21;24.40;99.90
36384;DHT22;22418;51.210;6.976;2023-09-12T09:08:52;24.60;99.90
36384;DHT22;22418;51.210;6.976;2023-09-12T09:11:23;24.50;99.90
36384;DHT22;22418;51.210;6.976;2023-09-12T09:13:57;24.90;99.90
36384;DHT22;22418;51.210;6.976;2023-09-12T09:16:28;25.10;99.90
36384;DHT22;22418;51.210;6.976;2023-09-12T09:21:32;25.30;99.90
36384;DHT22;22418;51.210;6.976;2023-09-12T09:24:06;25.50;99.90
36384;DHT22;22418;51.210;6.976;2023-09-12T09:26:48;25.60;99.90
36384;DHT22;22418;51.210;6.976;2023-09-12T09:29:20;25.70;99.90
36384;DHT22;22418;51.210;6.976;2023-09-12T09:31:51;25.80;99.90
36384;DHT22;22418;51.210;6.976;2023-09-12T09:34:22;25.80;99.90
36384;DHT22;22418;51.210;6.976;2023-09-12T09:36:55;25.80;99.90
36384;DHT22;22418;51.210;6.976;2023-09-12T09:39:28;25.90;99.90
36384;DHT22;22418;51.210;6.976;2023-09-12T09:42:02;25.70;99.90
36384;DHT22;22418;51.210;6.976;2023-09-12T09:44:33;25.40;99.90
36384;DHT22;22418;51.210;6.976;2023-09-12T09:47:03;25.20;99.90
36384;DHT22;22418;51.210;6.976;2023-09-12T09:49:34;25.20;99.90
36384;DHT22;22418;51.210;6.976;2023-09-12T09:52:05;24.90;99.90
36384;DHT22;22418;51.210;6.976;2023-09-12T09:54:36;24.90;99.90
36384;DHT22;22418;51.210;6.976;2023-09-12T09:57:13;24.80;99.90
36384;DHT22;22418;51.210;6.976;2023-09-12T09:59:49;24.50;99.90
36384;DHT22;22418;51.210;6.976;2023-09-12T10:02:21;24.30;99.90
36384;DHT22;22418;51.210;6.976;2023-09-12T10:04:56;24.10;99.90
36384;DHT22;22418;51.210;6.976;2023-09-12T10:07:32;24.20;99.90
36384;DHT22;22418;51.210;6.976;2023-09-12T10:10:03;24.30;99.90
36384;DHT22;22418;51.210;6.976;2023-09-12T10:12:36;24.30;99.90
36384;DHT22;22418;51.210;6.976;2023-09-12T10:15:08;24.30;99.90
36384;DHT22;22418;51.210;6.976;2023-09-12T10:17:40;24.10;99.90
36384;DHT22;22418;51.210;6.976;2023-09-12T10:20:20;23.80;99.90
36384;DHT22;22418;51.210;6.976;2023-09-12T10:22:56;23.80;99.90
36384;DHT22;22418;51.210;6.976;2023-09-12T10:25:28;23.80;99.90
36384;DHT22;22418;51.210;6.976;2023-09-12T10:27:59;23.90;99.90
36384;DHT22;22418;51.210;6.976;2023-09-12T10:30:30;23.80;99.90
36384;DHT22;22418;51.210;6.976;2023-09-12T10:33:04;23.90;99.90
36384;DHT22;22418;51.210;6.976;2023-09-12T10:35:35;23.80;99.90
36384;DHT22;22418;51.210;6.976;2023-09-12T10:38:08;23.70;99.90
36384;DHT22;22418;51.210;6.976;2023-09-12T10:40:39;23.70;99.90
36384;DHT22;22418;51.210;6.976;2023-09-12T10:43:11;23.50;99.90
36384;DHT22;22418;51.210;6.976;2023-09-12T10:45:43;23.60;99.90
36384;DHT22;22418;51.210;6.976;2023-09-12T10:48:14;23.70;99.90
36384;DHT22;22418;51.210;6.976;2023-09-12T10:50:45;23.70;99.90
36384;DHT22;22418;51.210;6.976;2023-09-12T10:53:16;23.60;99.90
36384;DHT22;22418;51.210;6.976;2023-09-12T10:59:08;23.40;99.90
36384;DHT22;22418;51.210;6.976;2023-09-12T11:01:43;23.40;99.90
36384;DHT22;22418;51.210;6.976;2023-09-12T11:06:50;23.80;99.90
36384;DHT22;22418;51.210;6.976;2023-09-12T11:09:24;23.90;99.90
36384;DHT22;22418;51.210;6.976;2023-09-12T11:11:58;24.30;99.90
36384;DHT22;22418;51.210;6.976;2023-09-12T11:14:29;24.40;99.90
36384;DHT22;22418;51.210;6.976;2023-09-12T11:19:45;24.60;99.90
36384;DHT22;22418;51.210;6.976;2023-09-12T11:22:27;24.70;99.90
36384;DHT22;22418;51.210;6.976;2023-09-12T11:25:02;24.40;99.90
36384;DHT22;22418;51.210;6.976;2023-09-12T11:30:25;24.10;99.90
36384;DHT22;22418;51.210;6.976;2023-09-12T11:32:55;24.10;99.90
36384;DHT22;22418;51.210;6.976;2023-09-12T11:35:28;24.10;99.90
36384;DHT22;22418;51.210;6.976;2023-09-12T11:37:59;24.00;99.90
36384;DHT22;22418;51.210;6.976;2023-09-12T11:43:04;24.20;99.90
36384;DHT22;22418;51.210;6.976;2023-09-12T11:45:35;24.40;99.90
36384;DHT22;22418;51.210;6.976;2023-09-12T11:48:12;24.50;99.90
36384;DHT22;22418;51.210;6.976;2023-09-12T11:50:49;24.20;99.90
36384;DHT22;22418;51.210;6.976;2023-09-12T11:53:25;24.30;99.90
36384;DHT22;22418;51.210;6.976;2023-09-12T11:55:58;24.40;99.90
36384;DHT22;22418;51.210;6.976;2023-09-12T11:58:29;24.50;99.90
36384;DHT22;22418;51.210;6.976;2023-09-12T12:00:59;24.40;99.90
36384;DHT22;22418;51.210;6.976;2023-09-12T12:03:30;24.30;99.90
36384;DHT22;22418;51.210;6.976;2023-09-12T12:06:01;24.20;99.90
36384;DHT22;22418;51.210;6.976;2023-09-12T12:08:31;24.30;99.90
36384;DHT22;22418;51.210;6.976;2023-09-12T12:11:02;24.40;99.90
36384;DHT22;22418;51.210;6.976;2023-09-12T12:13:33;24.20;99.90
36384;DHT22;22418;51.210;6.976;2023-09-12T12:16:18;24.10;99.90
36384;DHT22;22418;51.210;6.976;2023-09-12T12:18:49;24.10;99.90
36384;DHT22;22418;51.210;6.976;2023-09-12T12:21:24;24.00;99.90
36384;DHT22;22418;51.210;6.976;2023-09-12T12:24:02;24.00;99.90
36384;DHT22;22418;51.210;6.976;2023-09-12T12:26:33;24.10;99.90
36384;DHT22;22418;51.210;6.976;2023-09-12T12:29:04;24.20;99.90
36384;DHT22;22418;51.210;6.976;2023-09-12T12:31:35;24.20;99.90
36384;DHT22;22418;51.210;6.976;2023-09-12T12:34:06;24.30;99.90
36384;DHT22;22418;51.210;6.976;2023-09-12T12:36:43;24.40;99.90
36384;DHT22;22418;51.210;6.976;2023-09-12T12:39:13;24.50;99.90
36384;DHT22;22418;51.210;6.976;2023-09-12T12:41:44;24.40;99.90
36384;DHT22;22418;51.210;6.976;2023-09-12T12:44:15;24.30;99.90
36384;DHT22;22418;51.210;6.976;2023-09-12T12:46:53;24.40;99.90
36384;DHT22;22418;51.210;6.976;2023-09-12T12:49:24;24.50;99.90
36384;DHT22;22418;51.210;6.976;2023-09-12T12:51:55;24.40;99.90
36384;DHT22;22418;51.210;6.976;2023-09-12T12:54:26;24.40;99.90
36384;DHT22;22418;51.210;6.976;2023-09-12T12:57:01;24.30;99.90
36384;DHT22;22418;51.210;6.976;2023-09-12T12:59:33;24.40;99.90
36384;DHT22;22418;51.210;6.976;2023-09-12T13:02:06;24.30;99.90
36384;DHT22;22418;51.210;6.976;2023-09-12T13:04:37;24.30;99.90
36384;DHT22;22418;51.210;6.976;2023-09-12T13:07:08;24.20;99.90
36384;DHT22;22418;51.210;6.976;2023-09-12T13:09:39;24.20;99.90
36384;DHT22;22418;51.210;6.976;2023-09-12T13:12:09;24.20;99.90
36384;DHT22;22418;51.210;6.976;2023-09-12T13:14:41;24.30;99.90
36384;DHT22;22418;51.210;6.976;2023-09-12T13:17:11;24.30;99.90
36384;DHT22;22418;51.210;6.976;2023-09-12T13:19:42;24.40;99.90
36384;DHT22;22418;51.210;6.976;2023-09-12T13:22:12;24.30;99.90
36384;DHT22;22418;51.210;6.976;2023-09-12T13:24:43;24.30;99.90
36384;DHT22;22418;51.210;6.976;2023-09-12T13:27:14;24.30;99.90
36384;DHT22;22418;51.210;6.976;2023-09-12T13:29:44;24.40;99.90
36384;DHT22;22418;51.210;6.976;2023-09-12T13:32:15;24.30;99.90
36384;DHT22;22418;51.210;6.976;2023-09-12T13:34:47;24.30;99.90
36384;DHT22;22418;51.210;6.976;2023-09-12T13:37:17;24.30;99.90
36384;DHT22;22418;51.210;6.976;2023-09-12T13:39:49;24.30;99.90
36384;DHT22;22418;51.210;6.976;2023-09-12T13:42:20;24.30;99.90
36384;DHT22;22418;51.210;6.976;2023-09-12T13:44:51;24.30;99.90
36384;DHT22;22418;51.210;6.976;2023-09-12T13:47:21;24.20;99.90
36384;DHT22;22418;51.210;6.976;2023-09-12T13:49:52;24.30;99.90
36384;DHT22;22418;51.210;6.976;2023-09-12T13:52:26;24.40;99.90
36384;DHT22;22418;51.210;6.976;2023-09-12T13:54:57;24.40;99.90
36384;DHT22;22418;51.210;6.976;2023-09-12T13:57:28;24.60;99.90
36384;DHT22;22418;51.210;6.976;2023-09-12T13:59:59;24.60;99.90
36384;DHT22;22418;51.210;6.976;2023-09-12T14:02:29;24.70;99.90
36384;DHT22;22418;51.210;6.976;2023-09-12T14:05:00;24.70;99.90
36384;DHT22;22418;51.210;6.976;2023-09-12T14:07:31;24.90;99.90
36384;DHT22;22418;51.210;6.976;2023-09-12T14:10:02;24.80;99.90
36384;DHT22;22418;51.210;6.976;2023-09-12T14:12:33;24.80;99.90
36384;DHT22;22418;51.210;6.976;2023-09-12T14:15:04;24.90;99.90
36384;DHT22;22418;51.210;6.976;2023-09-12T14:17:36;24.90;99.90
36384;DHT22;22418;51.210;6.976;2023-09-12T14:20:07;25.10;99.90
36384;DHT22;22418;51.210;6.976;2023-09-12T14:22:39;25.20;99.90
36384;DHT22;22418;51.210;6.976;2023-09-12T14:25:10;25.00;99.90
36384;DHT22;22418;51.210;6.976;2023-09-12T14:27:44;25.00;99.90
36384;DHT22;22418;51.210;6.976;2023-09-12T14:30:15;25.00;99.90
36384;DHT22;22418;51.210;6.976;2023-09-12T14:32:46;25.10;99.90
36384;DHT22;22418;51.210;6.976;2023-09-12T14:35:16;24.90;99.90
36384;DHT22;22418;51.210;6.976;2023-09-12T14:37:47;24.90;99.90
36384;DHT22;22418;51.210;6.976;2023-09-12T14:40:19;24.70;99.90
36384;DHT22;22418;51.210;6.976;2023-09-12T14:42:50;24.70;99.90
36384;DHT22;22418;51.210;6.976;2023-09-12T14:45:21;24.80;99.90
36384;DHT22;22418;51.210;6.976;2023-09-12T14:47:51;24.90;99.90
36384;DHT22;22418;51.210;6.976;2023-09-12T14:50:23;24.70;99.90
36384;DHT22;22418;51.210;6.976;2023-09-12T14:52:59;24.60;99.90
36384;DHT22;22418;51.210;6.976;2023-09-12T14:55:30;24.50;99.90
36384;DHT22;22418;51.210;6.976;2023-09-12T14:58:00;24.50;99.90
36384;DHT22;22418;51.210;6.976;2023-09-12T15:00:31;24.40;99.90
36384;DHT22;22418;51.210;6.976;2023-09-12T15:03:03;24.40;99.90
36384;DHT22;22418;51.210;6.976;2023-09-12T15:05:34;24.50;99.90
36384;DHT22;22418;51.210;6.976;2023-09-12T15:08:05;24.50;99.90
36384;DHT22;22418;51.210;6.976;2023-09-12T15:10:37;24.60;99.90
36384;DHT22;22418;51.210;6.976;2023-09-12T15:13:08;24.70;99.90
36384;DHT22;22418;51.210;6.976;2023-09-12T15:15:38;24.70;99.90
36384;DHT22;22418;51.210;6.976;2023-09-12T15:18:09;24.70;99.90
36384;DHT22;22418;51.210;6.976;2023-09-12T15:20:39;24.70;99.90
36384;DHT22;22418;51.210;6.976;2023-09-12T15:23:10;24.70;99.90
36384;DHT22;22418;51.210;6.976;2023-09-12T15:25:40;24.70;99.90
36384;DHT22;22418;51.210;6.976;2023-09-12T15:28:11;24.70;99.90
36384;DHT22;22418;51.210;6.976;2023-09-12T15:30:44;24.70;99.90
36384;DHT22;22418;51.210;6.976;2023-09-12T15:33:15;24.60;99.90
36384;DHT22;22418;51.210;6.976;2023-09-12T15:35:45;24.70;99.90
36384;DHT22;22418;51.210;6.976;2023-09-12T15:38:16;24.70;99.90
36384;DHT22;22418;51.210;6.976;2023-09-12T15:40:46;24.70;99.90
36384;DHT22;22418;51.210;6.976;2023-09-12T15:43:17;24.70;99.90
36384;DHT22;22418;51.210;6.976;2023-09-12T15:45:47;24.70;99.90
36384;DHT22;22418;51.210;6.976;2023-09-12T15:48:19;24.70;99.90
36384;DHT22;22418;51.210;6.976;2023-09-12T15:50:50;24.70;99.90
36384;DHT22;22418;51.210;6.976;2023-09-12T15:53:21;24.70;99.90
36384;DHT22;22418;51.210;6.976;2023-09-12T15:55:51;24.70;99.90
36384;DHT22;22418;51.210;6.976;2023-09-12T15:58:22;24.50;99.90
36384;DHT22;22418;51.210;6.976;2023-09-12T16:00:53;24.60;99.90
36384;DHT22;22418;51.210;6.976;2023-09-12T16:03:25;24.60;99.90
36384;DHT22;22418;51.210;6.976;2023-09-12T16:05:55;24.70;99.90
36384;DHT22;22418;51.210;6.976;2023-09-12T16:08:26;24.60;99.90
36384;DHT22;22418;51.210;6.976;2023-09-12T16:10:57;24.50;99.90
36384;DHT22;22418;51.210;6.976;2023-09-12T16:13:27;24.50;99.90
36384;DHT22;22418;51.210;6.976;2023-09-12T16:15:58;24.40;99.90